createdAt,value
2019-01-29T00:01:48.194Z,5.83
2019-01-29T00:04:14.647Z,5.77
2019-01-29T00:06:41.142Z,5.53
2019-01-29T00:09:07.668Z,5.50
2019-01-29T00:11:34.139Z,4.87
2019-01-29T00:14:00.691Z,5.63
2019-01-29T00:16:27.153Z,5.67
2019-01-29T00:18:53.513Z,4.93
2019-01-29T00:21:20.018Z,5.10
2019-01-29T00:23:46.461Z,5.10
2019-01-29T00:26:12.822Z,4.30
2019-01-29T00:28:39.270Z,4.27
2019-01-29T00:31:05.739Z,4.47
2019-01-29T00:33:32.111Z,4.80
2019-01-29T00:35:58.589Z,4.57
2019-01-29T00:38:25.037Z,4.70
2019-01-29T00:40:51.614Z,4.67
2019-01-29T00:43:17.972Z,4.67
2019-01-29T00:45:44.343Z,4.80
2019-01-29T00:48:10.687Z,4.50
2019-01-29T00:50:37.234Z,4.77
2019-01-29T00:53:03.807Z,4.10
2019-01-29T00:55:30.278Z,4.30
2019-01-29T00:57:56.872Z,5.13
2019-01-29T01:00:23.425Z,3.93
2019-01-29T01:02:50.186Z,3.90
2019-01-29T01:05:17.038Z,4.27
2019-01-29T01:07:43.495Z,4.17
2019-01-29T01:10:11.842Z,4.20
2019-01-29T01:12:38.265Z,4.33
2019-01-29T01:15:06.563Z,4.33
2019-01-29T01:17:32.964Z,4.60
2019-01-29T01:19:59.441Z,3.57
2019-01-29T01:22:26.007Z,4.50
2019-01-29T01:24:52.531Z,4.47
2019-01-29T01:27:19.130Z,5.23
2019-01-29T01:29:45.576Z,4.53
2019-01-29T01:32:12.342Z,4.13
2019-01-29T01:34:38.789Z,4.20
2019-01-29T01:37:05.232Z,5.20
2019-01-29T01:39:31.694Z,4.73
2019-01-29T01:41:58.145Z,4.30
2019-01-29T01:44:24.611Z,4.90
2019-01-29T01:46:51.171Z,4.30
2019-01-29T01:49:17.635Z,5.13
2019-01-29T01:51:44.197Z,5.73
2019-01-29T01:54:10.650Z,4.80
2019-01-29T01:56:37.010Z,5.00
2019-01-29T01:59:03.489Z,5.23
2019-01-29T02:01:29.936Z,4.57
2019-01-29T02:03:56.505Z,5.40
2019-01-29T02:06:23.059Z,5.03
2019-01-29T02:08:49.525Z,4.13
2019-01-29T02:11:15.968Z,4.77
2019-01-29T02:13:42.483Z,5.53
2019-01-29T02:16:09.030Z,5.27
2019-01-29T02:18:35.615Z,4.80
2019-01-29T02:21:02.053Z,5.30
2019-01-29T02:23:28.552Z,5.63
2019-01-29T02:25:55.127Z,6.20
2019-01-29T02:28:21.497Z,5.20
2019-01-29T02:30:47.864Z,5.60
2019-01-29T02:33:14.381Z,4.50
2019-01-29T02:35:40.847Z,5.53
2019-01-29T02:38:07.234Z,5.23
2019-01-29T02:40:33.803Z,5.47
2019-01-29T02:43:00.255Z,5.97
2019-01-29T02:45:26.854Z,5.30
2019-01-29T02:47:53.303Z,5.57
2019-01-29T02:50:20.005Z,5.83
2019-01-29T02:52:46.350Z,5.87
2019-01-29T02:55:13.423Z,5.67
2019-01-29T02:57:39.879Z,5.17
2019-01-29T03:00:08.264Z,5.77
2019-01-29T03:02:34.730Z,5.40
2019-01-29T03:05:01.193Z,6.07
2019-01-29T03:07:27.740Z,5.50
2019-01-29T03:09:54.107Z,5.20
2019-01-29T03:12:20.561Z,5.70
2019-01-29T03:14:47.164Z,5.80
2019-01-29T03:17:13.749Z,5.33
2019-01-29T03:19:40.183Z,5.73
2019-01-29T03:22:06.766Z,5.77
2019-01-29T03:24:33.238Z,5.60
2019-01-29T03:26:59.703Z,4.90
2019-01-29T03:29:26.167Z,5.00
2019-01-29T03:31:52.688Z,5.70
2019-01-29T03:34:19.153Z,5.03
2019-01-29T03:36:45.743Z,5.07
2019-01-29T03:39:12.294Z,5.20
2019-01-29T03:41:38.776Z,4.93
2019-01-29T03:44:05.237Z,5.37
2019-01-29T03:46:31.810Z,4.80
2019-01-29T03:48:58.259Z,5.37
2019-01-29T03:51:24.851Z,4.80
2019-01-29T03:53:52.826Z,4.70
2019-01-29T03:56:19.297Z,5.83
2019-01-29T03:58:45.857Z,5.20
2019-01-29T04:01:12.432Z,4.93
2019-01-29T04:03:38.887Z,5.07
2019-01-29T04:06:05.354Z,4.77
2019-01-29T04:08:31.915Z,5.67
2019-01-29T04:10:58.466Z,4.70
2019-01-29T04:13:24.937Z,4.10
2019-01-29T04:15:51.427Z,4.70
2019-01-29T04:18:17.894Z,4.87
2019-01-29T04:20:44.365Z,4.93
2019-01-29T04:23:10.831Z,5.07
2019-01-29T04:25:37.391Z,4.73
2019-01-29T04:28:03.892Z,5.27
2019-01-29T04:30:30.334Z,4.37
2019-01-29T04:32:56.970Z,3.83
2019-01-29T04:35:23.426Z,4.47
2019-01-29T04:37:49.892Z,4.67
2019-01-29T04:40:17.341Z,4.30
2019-01-29T04:42:43.817Z,4.83
2019-01-29T04:45:11.462Z,4.37
2019-01-29T04:47:38.130Z,4.63
2019-01-29T04:50:06.088Z,4.60
2019-01-29T04:52:32.546Z,4.80
2019-01-29T04:54:59.013Z,5.33
2019-01-29T04:57:25.564Z,4.70
2019-01-29T04:59:52.137Z,4.43
2019-01-29T05:02:19.108Z,5.30
2019-01-29T05:04:45.587Z,4.63
2019-01-29T05:07:12.034Z,5.07
2019-01-29T05:09:38.517Z,4.80
2019-01-29T05:12:05.071Z,5.30
2019-01-29T05:14:31.640Z,4.47
2019-01-29T05:16:58.082Z,5.13
2019-01-29T05:19:24.458Z,4.43
2019-01-29T05:21:51.007Z,4.37
2019-01-29T05:24:17.487Z,4.53
2019-01-29T05:26:43.928Z,4.53
2019-01-29T05:29:10.401Z,5.33
2019-01-29T05:31:36.901Z,4.97
2019-01-29T05:34:03.482Z,5.13
2019-01-29T05:36:29.928Z,4.40
2019-01-29T05:38:56.401Z,4.40
2019-01-29T05:41:22.851Z,4.50
2019-01-29T05:43:49.319Z,4.43
2019-01-29T05:46:15.771Z,4.07
2019-01-29T05:48:42.319Z,4.53
2019-01-29T05:51:08.906Z,4.00
2019-01-29T05:53:35.307Z,4.97
2019-01-29T05:56:01.982Z,4.30
2019-01-29T05:58:28.423Z,4.17
2019-01-29T06:00:54.921Z,4.87
2019-01-29T06:03:21.365Z,4.10
2019-01-29T06:05:47.929Z,4.00
2019-01-29T06:08:14.279Z,4.47
2019-01-29T06:10:40.677Z,4.57
2019-01-29T06:13:07.153Z,4.33
2019-01-29T06:15:33.712Z,4.53
2019-01-29T06:18:00.273Z,4.77
2019-01-29T06:20:27.961Z,4.00
2019-01-29T06:22:54.403Z,3.97
2019-01-29T06:25:20.896Z,4.27
2019-01-29T06:27:47.272Z,4.50
2019-01-29T06:30:14.718Z,4.20
2019-01-29T06:32:41.222Z,4.30
2019-01-29T06:35:09.073Z,3.50
2019-01-29T06:37:35.561Z,4.13
2019-01-29T06:40:02.429Z,4.13
2019-01-29T06:42:28.902Z,4.17
2019-01-29T06:44:55.506Z,3.53
2019-01-29T06:47:22.079Z,4.37
2019-01-29T06:49:48.525Z,4.53
2019-01-29T06:52:15.105Z,5.10
2019-01-29T06:54:41.580Z,5.17
2019-01-29T06:57:08.064Z,5.07
2019-01-29T06:59:34.423Z,5.20
2019-01-29T07:02:00.808Z,5.20
2019-01-29T07:04:27.364Z,4.87
2019-01-29T07:06:53.822Z,5.00
2019-01-29T07:09:20.271Z,4.87
2019-01-29T07:11:48.650Z,4.60
2019-01-29T07:14:15.090Z,5.30
2019-01-29T07:16:43.501Z,5.43
2019-01-29T07:19:11.848Z,4.47
2019-01-29T07:21:38.325Z,5.43
2019-01-29T07:24:04.795Z,5.60
2019-01-29T07:26:31.276Z,5.33
2019-01-29T07:28:57.829Z,5.67
2019-01-29T07:31:24.285Z,5.70
2019-01-29T07:33:50.901Z,5.47
2019-01-29T07:36:17.520Z,5.50
2019-01-29T07:38:44.001Z,6.00
2019-01-29T07:41:10.373Z,5.73
2019-01-29T07:43:36.960Z,5.37
2019-01-29T07:46:03.402Z,5.60
2019-01-29T07:48:29.880Z,5.27
2019-01-29T07:50:56.439Z,5.60
2019-01-29T07:53:22.996Z,5.60
2019-01-29T07:55:49.355Z,5.83
2019-01-29T07:58:15.919Z,5.57
2019-01-29T08:00:42.420Z,6.10
2019-01-29T08:03:09.042Z,5.20
2019-01-29T08:05:35.599Z,5.50
2019-01-29T08:08:02.058Z,5.17
2019-01-29T08:10:28.431Z,5.47
2019-01-29T08:12:56.537Z,5.83
2019-01-29T08:15:23.180Z,5.87
2019-01-29T08:17:50.178Z,5.83
2019-01-29T08:20:17.042Z,5.23
2019-01-29T08:22:43.702Z,6.50
2019-01-29T08:25:10.287Z,5.97
2019-01-29T08:27:36.849Z,6.00
2019-01-29T08:30:04.943Z,5.60
2019-01-29T08:32:31.460Z,6.00
2019-01-29T08:34:57.931Z,5.20
2019-01-29T08:37:24.379Z,5.63
2019-01-29T08:39:50.942Z,6.30
2019-01-29T08:42:17.305Z,6.83
2019-01-29T08:44:43.883Z,7.33
2019-01-29T08:47:10.319Z,5.63
2019-01-29T08:49:36.701Z,6.70
2019-01-29T08:52:03.269Z,6.20
2019-01-29T08:54:29.865Z,6.23
2019-01-29T08:56:56.319Z,6.07
2019-01-29T08:59:22.778Z,5.70
2019-01-29T09:01:49.397Z,5.73
2019-01-29T09:04:15.759Z,5.00
2019-01-29T09:06:42.302Z,5.73
2019-01-29T09:09:09.111Z,5.93
2019-01-29T09:11:35.554Z,6.17
2019-01-29T09:14:02.203Z,5.93
2019-01-29T09:16:28.671Z,5.80
2019-01-29T09:18:55.138Z,6.23
2019-01-29T09:21:21.495Z,6.80
2019-01-29T09:23:47.955Z,7.10
2019-01-29T09:26:14.323Z,7.23
2019-01-29T09:28:40.867Z,8.07
2019-01-29T09:31:07.347Z,6.77
2019-01-29T09:33:34.033Z,7.37
2019-01-29T09:36:00.423Z,7.90
2019-01-29T09:38:26.889Z,8.80
2019-01-29T09:40:53.354Z,7.37
2019-01-29T09:43:19.899Z,7.80
2019-01-29T09:45:46.382Z,8.13
2019-01-29T09:48:12.838Z,7.20
2019-01-29T09:50:39.314Z,8.10
2019-01-29T09:53:05.871Z,7.13
2019-01-29T09:55:32.339Z,7.30
2019-01-29T09:57:58.802Z,6.73
2019-01-29T10:00:27.151Z,6.77
2019-01-29T10:02:53.771Z,6.50
2019-01-29T10:05:20.320Z,7.17
2019-01-29T10:07:46.787Z,6.57
2019-01-29T10:10:13.242Z,6.20
2019-01-29T10:12:39.614Z,6.50
2019-01-29T10:15:07.891Z,6.90
2019-01-29T10:17:34.583Z,4.40
2019-01-29T10:20:02.624Z,5.97
2019-01-29T10:22:29.421Z,5.40
2019-01-29T10:24:55.875Z,4.77
2019-01-29T10:27:22.354Z,5.30
2019-01-29T10:29:48.828Z,5.07
2019-01-29T10:32:15.230Z,5.13
2019-01-29T10:34:41.896Z,4.50
2019-01-29T10:37:08.364Z,4.17
2019-01-29T10:39:34.736Z,4.43
2019-01-29T10:42:01.222Z,4.10
2019-01-29T10:44:27.677Z,3.97
2019-01-29T10:46:54.144Z,3.63
2019-01-29T10:49:20.613Z,3.60
2019-01-29T10:51:47.085Z,3.57
2019-01-29T10:54:13.535Z,3.47
2019-01-29T10:56:39.984Z,3.87
2019-01-29T10:59:06.343Z,4.20
2019-01-29T11:01:32.805Z,4.03
2019-01-29T11:03:59.271Z,3.63
2019-01-29T11:06:25.719Z,3.53
2019-01-29T11:08:52.193Z,3.30
2019-01-29T11:11:18.636Z,3.97
2019-01-29T11:13:45.117Z,3.53
2019-01-29T11:16:11.577Z,3.37
2019-01-29T11:18:38.139Z,4.70
2019-01-29T11:21:04.898Z,3.87
2019-01-29T11:23:31.454Z,3.80
2019-01-29T11:25:57.917Z,3.73
2019-01-29T11:28:24.481Z,3.50
2019-01-29T11:30:51.049Z,3.47
2019-01-29T11:33:17.538Z,3.90
2019-01-29T11:35:44.117Z,4.13
2019-01-29T11:38:10.686Z,3.87
2019-01-29T11:40:37.171Z,3.90
2019-01-29T11:43:03.611Z,3.93
2019-01-29T11:45:32.060Z,3.70
2019-01-29T11:47:58.734Z,3.63
2019-01-29T11:50:25.323Z,3.67
2019-01-29T11:52:51.874Z,4.43
2019-01-29T11:55:18.272Z,4.40
2019-01-29T11:57:44.715Z,4.17
2019-01-29T12:00:15.628Z,3.47
2019-01-29T12:02:42.182Z,4.47
2019-01-29T12:05:08.902Z,4.20
2019-01-29T12:07:35.346Z,3.77
2019-01-29T12:10:02.825Z,4.17
2019-01-29T12:12:29.269Z,4.70
2019-01-29T12:14:55.739Z,3.60
2019-01-29T12:17:22.074Z,3.53
2019-01-29T12:19:48.570Z,3.47
2019-01-29T12:22:15.116Z,3.53
2019-01-29T12:24:41.679Z,2.80
2019-01-29T12:27:08.134Z,3.40
2019-01-29T12:29:34.485Z,3.53
2019-01-29T12:32:01.046Z,3.97
2019-01-29T12:34:27.426Z,3.70
2019-01-29T12:36:53.886Z,2.70
2019-01-29T12:39:20.255Z,4.13
2019-01-29T12:41:46.857Z,3.90
2019-01-29T12:44:13.313Z,4.00
2019-01-29T12:46:39.691Z,3.60
2019-01-29T12:49:06.172Z,3.60
2019-01-29T12:51:33.546Z,3.60
2019-01-29T12:53:59.995Z,3.43
2019-01-29T12:56:26.502Z,3.40
2019-01-29T12:58:52.959Z,3.13
2019-01-29T13:01:19.540Z,3.00
2019-01-29T13:03:45.997Z,2.93
2019-01-29T13:06:12.423Z,2.93
2019-01-29T13:08:38.881Z,3.40
2019-01-29T13:11:05.463Z,3.97
2019-01-29T13:13:31.843Z,8.00
2019-01-29T13:15:58.212Z,4.80
2019-01-29T13:18:24.767Z,7.67
2019-01-29T13:20:51.243Z,5.43
2019-01-29T13:23:17.799Z,9.13
2019-01-29T13:25:44.273Z,6.43
2019-01-29T13:28:10.836Z,6.67
2019-01-29T13:30:37.275Z,5.53
2019-01-29T13:33:05.190Z,4.40
2019-01-29T13:35:32.734Z,3.20
2019-01-29T13:37:59.424Z,3.37
2019-01-29T13:40:25.871Z,3.40
2019-01-29T13:42:52.330Z,3.27
2019-01-29T13:45:18.987Z,2.93
2019-01-29T13:47:45.449Z,2.90
2019-01-29T13:50:13.799Z,2.70
2019-01-29T13:52:40.367Z,2.80
2019-01-29T13:55:08.727Z,2.77
2019-01-29T13:57:35.293Z,2.90
2019-01-29T14:00:02.139Z,2.77
2019-01-29T14:02:28.498Z,3.20
2019-01-29T14:04:55.058Z,3.23
2019-01-29T14:07:21.727Z,3.37
2019-01-29T14:09:48.180Z,3.17
2019-01-29T14:12:14.662Z,3.10
2019-01-29T14:14:41.015Z,2.90
2019-01-29T14:17:07.406Z,3.00
2019-01-29T14:19:33.861Z,2.90
2019-01-29T14:22:00.440Z,2.93
2019-01-29T14:24:26.883Z,2.60
2019-01-29T14:26:53.335Z,2.70
2019-01-29T14:29:19.813Z,3.00
2019-01-29T14:31:46.181Z,2.53
2019-01-29T14:34:12.706Z,2.60
2019-01-29T14:36:39.091Z,2.67
2019-01-29T14:39:07.558Z,2.63
2019-01-29T14:41:34.007Z,2.33
2019-01-29T14:44:00.424Z,2.57
2019-01-29T14:46:26.979Z,2.67
2019-01-29T14:48:53.680Z,2.80
2019-01-29T14:51:20.124Z,2.70
2019-01-29T14:53:46.738Z,2.60
2019-01-29T14:56:13.265Z,2.77
2019-01-29T14:58:39.727Z,2.30
2019-01-29T15:01:06.578Z,2.77
2019-01-29T15:03:33.239Z,2.30
2019-01-29T15:05:59.712Z,2.70
2019-01-29T15:08:26.179Z,2.50
2019-01-29T15:10:52.750Z,2.70
2019-01-29T15:13:19.331Z,3.00
2019-01-29T15:15:47.779Z,2.87
2019-01-29T15:18:21.972Z,3.23
2019-01-29T15:20:48.440Z,3.00
2019-01-29T15:23:14.887Z,3.20
2019-01-29T15:25:41.282Z,2.90
2019-01-29T15:28:07.824Z,3.70
2019-01-29T15:30:34.435Z,3.33
2019-01-29T15:33:00.814Z,3.17
2019-01-29T15:35:27.311Z,3.27
2019-01-29T15:37:54.695Z,11.87
2019-01-29T15:40:21.543Z,7.17
2019-01-29T15:42:48.412Z,5.77
2019-01-29T15:45:16.799Z,5.57
2019-01-29T15:47:43.558Z,6.47
2019-01-29T15:50:11.727Z,4.90
2019-01-29T15:52:38.117Z,8.30
2019-01-29T15:55:06.487Z,4.57
2019-01-29T15:57:32.934Z,3.77
2019-01-29T15:59:59.306Z,4.70
2019-01-29T16:02:25.850Z,4.43
2019-01-29T16:04:52.426Z,2.90
2019-01-29T16:07:18.973Z,2.70
2019-01-29T16:09:45.594Z,2.80
2019-01-29T16:12:12.034Z,2.27
2019-01-29T16:14:38.478Z,1.83
2019-01-29T16:17:04.950Z,2.30
2019-01-29T16:19:31.505Z,2.17
2019-01-29T16:21:57.867Z,2.20
2019-01-29T16:24:24.314Z,2.33
2019-01-29T16:26:50.782Z,2.60
2019-01-29T16:29:17.339Z,2.50
2019-01-29T16:31:43.907Z,2.40
2019-01-29T16:34:10.394Z,2.37
2019-01-29T16:36:36.865Z,2.40
2019-01-29T16:39:05.113Z,2.60
2019-01-29T16:41:31.604Z,2.57
2019-01-29T16:43:58.022Z,3.10
2019-01-29T16:46:24.591Z,2.87
2019-01-29T16:48:51.144Z,3.50
2019-01-29T16:51:17.530Z,3.07
2019-01-29T16:53:44.099Z,3.37
2019-01-29T16:56:10.554Z,3.47
2019-01-29T16:58:37.008Z,4.33
2019-01-29T17:01:03.662Z,3.70
2019-01-29T17:03:30.135Z,3.30
2019-01-29T17:05:56.484Z,2.93
2019-01-29T17:08:23.055Z,2.90
2019-01-29T17:10:49.503Z,2.63
2019-01-29T17:13:15.966Z,3.30
2019-01-29T17:15:42.562Z,3.40
2019-01-29T17:18:10.215Z,3.70
2019-01-29T17:20:38.459Z,3.53
2019-01-29T17:23:05.620Z,3.27
2019-01-29T17:25:32.071Z,3.00
2019-01-29T17:27:58.544Z,3.57
2019-01-29T17:30:26.710Z,6.00
2019-01-29T17:32:53.136Z,3.70
2019-01-29T17:35:20.383Z,3.93
2019-01-29T17:37:46.872Z,5.53
2019-01-29T17:40:15.238Z,10.83
2019-01-29T17:42:41.705Z,12.33
2019-01-29T17:45:09.959Z,13.97
2019-01-29T17:47:36.419Z,8.33
2019-01-29T17:50:04.783Z,6.97
2019-01-29T17:52:31.541Z,6.50
2019-01-29T17:54:58.007Z,7.13
2019-01-29T17:57:24.464Z,5.50
2019-01-29T17:59:50.935Z,5.67
2019-01-29T18:02:17.483Z,6.17
2019-01-29T18:04:43.964Z,8.70
2019-01-29T18:07:10.411Z,6.53
2019-01-29T18:09:36.786Z,5.57
2019-01-29T18:12:03.158Z,5.33
2019-01-29T18:14:29.550Z,9.47
2019-01-29T18:16:55.994Z,7.43
2019-01-29T18:19:22.484Z,5.33
2019-01-29T18:21:56.731Z,6.90
2019-01-29T18:24:17.195Z,6.23
2019-01-29T18:26:43.743Z,5.90
2019-01-29T18:29:10.209Z,8.60
2019-01-29T18:31:36.659Z,7.03
2019-01-29T18:34:03.329Z,7.53
2019-01-29T18:36:29.846Z,9.50
2019-01-29T18:38:56.405Z,11.43
2019-01-29T18:41:22.926Z,10.30
2019-01-29T18:43:49.519Z,11.23
2019-01-29T18:46:15.972Z,11.30
2019-01-29T18:48:42.365Z,10.87
2019-01-29T18:51:08.899Z,9.97
2019-01-29T18:53:35.342Z,10.33
2019-01-29T18:56:01.845Z,10.30
2019-01-29T18:58:28.195Z,9.50
2019-01-29T19:00:55.070Z,10.67
2019-01-29T19:03:21.779Z,10.80
2019-01-29T19:05:48.398Z,10.83
2019-01-29T19:08:14.920Z,11.63
2019-01-29T19:10:41.523Z,12.13
2019-01-29T19:13:08.036Z,11.13
2019-01-29T19:15:34.631Z,12.37
2019-01-29T19:18:01.300Z,11.20
2019-01-29T19:20:27.779Z,10.80
2019-01-29T19:22:54.255Z,10.73
2019-01-29T19:25:20.742Z,11.00
2019-01-29T19:27:47.307Z,10.83
2019-01-29T19:30:15.721Z,10.40
2019-01-29T19:32:42.276Z,9.63
2019-01-29T19:35:08.761Z,9.90
2019-01-29T19:37:35.256Z,9.50
2019-01-29T19:40:02.439Z,9.57
2019-01-29T19:42:28.896Z,9.20
2019-01-29T19:44:55.442Z,10.27
2019-01-29T19:47:22.021Z,9.03
2019-01-29T19:49:48.583Z,9.07
2019-01-29T19:52:14.952Z,10.87
2019-01-29T19:54:41.412Z,10.60
2019-01-29T19:57:07.995Z,9.97
2019-01-29T19:59:34.351Z,9.60
2019-01-29T20:02:00.923Z,10.60
2019-01-29T20:04:27.379Z,11.70
2019-01-29T20:06:53.858Z,9.97
2019-01-29T20:09:20.245Z,9.83
2019-01-29T20:11:46.612Z,10.27
2019-01-29T20:14:13.160Z,11.50
2019-01-29T20:16:39.619Z,9.50
2019-01-29T20:19:06.091Z,9.40
2019-01-29T20:21:32.535Z,9.50
2019-01-29T20:23:59.105Z,9.70
2019-01-29T20:26:25.563Z,9.67
2019-01-29T20:28:52.054Z,10.50
2019-01-29T20:31:18.604Z,9.67
2019-01-29T20:33:45.105Z,9.87
2019-01-29T20:36:11.551Z,9.83
2019-01-29T20:38:38.027Z,9.70
2019-01-29T20:41:04.578Z,9.50
2019-01-29T20:43:31.059Z,9.87
2019-01-29T20:45:57.602Z,11.27
2019-01-29T20:48:24.095Z,11.30
2019-01-29T20:50:50.641Z,10.10
2019-01-29T20:53:17.249Z,9.53
2019-01-29T20:55:43.625Z,10.93
2019-01-29T20:58:10.104Z,10.23
2019-01-29T21:00:38.463Z,10.47
2019-01-29T21:03:05.035Z,10.70
2019-01-29T21:05:31.579Z,9.67
2019-01-29T21:08:00.496Z,11.03
2019-01-29T21:10:26.457Z,10.60
2019-01-29T21:12:53.068Z,10.13
2019-01-29T21:15:20.687Z,11.07
2019-01-29T21:17:47.173Z,10.87
2019-01-29T21:20:14.739Z,10.63
2019-01-29T21:22:41.282Z,10.53
2019-01-29T21:25:07.946Z,10.67
2019-01-29T21:27:34.512Z,10.97
2019-01-29T21:30:01.125Z,11.07
2019-01-29T21:32:27.733Z,12.03
2019-01-29T21:34:56.811Z,11.07
2019-01-29T21:37:23.590Z,11.27
2019-01-29T21:39:50.238Z,11.63
2019-01-29T21:42:16.968Z,11.37
2019-01-29T21:44:43.668Z,11.40
2019-01-29T21:47:13.355Z,10.90
2019-01-29T21:49:42.644Z,11.63
2019-01-29T21:52:11.261Z,12.83
2019-01-29T21:54:37.910Z,10.50
2019-01-29T21:57:04.468Z,11.53
2019-01-29T21:59:31.037Z,10.97
2019-01-29T22:01:57.591Z,11.50
2019-01-29T22:04:24.242Z,11.30
2019-01-29T22:06:52.772Z,12.30
2019-01-29T22:09:19.364Z,12.20
2019-01-29T22:11:45.807Z,12.23
2019-01-29T22:14:12.423Z,12.47
2019-01-29T22:16:39.049Z,12.67
2019-01-29T22:19:05.599Z,12.50
2019-01-29T22:21:32.427Z,12.20
2019-01-29T22:23:58.994Z,13.73
2019-01-29T22:26:25.590Z,12.97
2019-01-29T22:28:53.970Z,14.00
2019-01-29T22:31:20.701Z,12.63
2019-01-29T22:33:47.412Z,13.27
2019-01-29T22:36:13.958Z,13.33
2019-01-29T22:38:40.981Z,12.37
2019-01-29T22:41:07.480Z,13.33
2019-01-29T22:43:33.968Z,14.10
2019-01-29T22:46:00.416Z,14.33
2019-01-29T22:48:26.783Z,14.27
2019-01-29T22:50:55.149Z,13.50
2019-01-29T22:53:21.955Z,14.07
2019-01-29T22:55:48.494Z,13.73
2019-01-29T22:58:15.057Z,13.47
2019-01-29T23:00:43.730Z,13.17
2019-01-29T23:03:10.119Z,13.57
2019-01-29T23:05:37.941Z,14.40
2019-01-29T23:08:04.558Z,13.97
2019-01-29T23:10:31.045Z,14.03
2019-01-29T23:12:57.515Z,14.43
2019-01-29T23:15:24.080Z,13.40
2019-01-29T23:17:52.955Z,14.03
2019-01-29T23:20:19.290Z,14.53
2019-01-29T23:22:45.957Z,14.10
2019-01-29T23:25:12.423Z,13.57
2019-01-29T23:27:39.232Z,13.03
2019-01-29T23:30:07.644Z,14.67
2019-01-29T23:32:34.028Z,13.00
2019-01-29T23:35:00.440Z,12.13
2019-01-29T23:37:26.923Z,14.57
2019-01-29T23:39:53.398Z,13.97
2019-01-29T23:42:23.048Z,13.90
2019-01-29T23:44:52.632Z,14.40
2019-01-29T23:47:19.131Z,13.17
2019-01-29T23:49:45.500Z,13.13
2019-01-29T23:52:11.955Z,13.63
2019-01-29T23:54:38.429Z,13.13
2019-01-29T23:57:04.840Z,14.17
2019-01-29T23:59:33.274Z,13.67
